Time;durP1;ratioP1;P1;durP2;ratioP2;P2;SDS_P1;SDS_P2;PMS_P1;PMS_P2;Temp;Humidity;BMP_temperature;BMP_pressure;BME280_temperature;BME280_humidity;BME280_pressure;Samples;Min_cycle;Max_cycle;Signal;HPM_P1;HPM_P2
2024/01/09 00:00:09;;;;;;;6.97;4.87;;;;;;;-7.16;100.00;102997.03;10517136;27;20477;-81
2024/01/09 00:05:10;;;;;;;16.58;4.88;;;;;;;-7.21;100.00;102989.41;10526854;27;21450;-81
2024/01/09 00:10:10;;;;;;;7.07;3.40;;;;;;;-7.19;100.00;102999.09;10490411;28;20141;-81
2024/01/09 00:15:11;;;;;;;7.20;5.63;;;;;;;-7.11;100.00;102997.75;10485470;27;20040;-81
2024/01/09 00:20:12;;;;;;;5.27;3.50;;;;;;;-7.11;100.00;102992.66;10493585;28;20037;-81
2024/01/09 00:25:15;;;;;;;6.47;3.63;;;;;;;-7.05;100.00;102988.50;10468457;28;20044;-81
2024/01/09 00:30:16;;;;;;;6.50;4.05;;;;;;;-7.16;100.00;102986.84;10521569;28;20055;-81
2024/01/09 00:35:17;;;;;;;6.53;4.43;;;;;;;-7.15;100.00;102986.16;10485045;28;20036;-82
2024/01/09 00:40:17;;;;;;;7.43;4.83;;;;;;;-7.21;100.00;102986.84;10485123;28;20416;-82
2024/01/09 00:45:18;;;;;;;7.47;4.47;;;;;;;-7.32;100.00;102986.16;10477625;28;20036;-81
2024/01/09 00:50:19;;;;;;;6.90;3.77;;;;;;;-7.33;100.00;102989.38;10480454;28;20549;-81
2024/01/09 00:55:19;;;;;;;7.97;5.53;;;;;;;-7.15;100.00;102980.16;10482694;28;20175;-81
2024/01/09 01:00:20;;;;;;;7.77;3.60;;;;;;;-7.17;100.00;102986.63;10490865;28;20139;-81
2024/01/09 01:05:20;;;;;;;5.50;3.33;;;;;;;-7.26;100.00;102987.09;10466297;28;20407;-81
2024/01/09 01:10:21;;;;;;;3.93;2.70;;;;;;;-7.25;100.00;102988.94;10485162;28;20048;-81
2024/01/09 01:15:23;;;;;;;8.63;3.93;;;;;;;-7.24;100.00;102982.22;10462584;28;20048;-81
2024/01/09 01:20:23;;;;;;;6.82;3.72;;;;;;;-7.18;100.00;102992.41;10498156;28;20550;-81
2024/01/09 01:25:24;;;;;;;5.87;4.03;;;;;;;-7.29;100.00;102991.69;10477715;28;20171;-81
2024/01/09 01:30:24;;;;;;;6.33;3.33;;;;;;;-7.25;100.00;103001.66;10482957;28;20116;-81
2024/01/09 01:35:25;;;;;;;6.70;3.67;;;;;;;-7.23;100.00;102999.34;10497218;28;20051;-80
2024/01/09 01:40:25;;;;;;;4.20;2.67;;;;;;;-7.41;100.00;102984.75;10494054;28;20128;-80
2024/01/09 01:45:26;;;;;;;4.47;4.00;;;;;;;-7.36;100.00;102994.00;10472327;28;20143;-80
2024/01/09 01:50:27;;;;;;;8.80;4.23;;;;;;;-7.24;100.00;102997.47;10470915;28;20069;-81
2024/01/09 01:55:28;;;;;;;6.60;3.30;;;;;;;-7.38;100.00;103001.38;10473285;28;20052;-81
2024/01/09 02:00:29;;;;;;;5.97;4.45;;;;;;;-7.42;100.00;102998.16;10458208;28;20135;-81
2024/01/09 02:05:29;;;;;;;5.53;3.73;;;;;;;-7.44;100.00;102995.34;10482780;28;20128;-82
2024/01/09 02:10:30;;;;;;;4.37;2.87;;;;;;;-7.52;100.00;102986.56;10462454;28;20484;-81
2024/01/09 02:15:30;;;;;;;10.00;4.37;;;;;;;-7.53;100.00;102991.41;10482261;28;20044;-81
2024/01/09 02:20:31;;;;;;;5.77;3.23;;;;;;;-7.51;100.00;102992.56;10499147;28;20131;-81
2024/01/09 02:25:31;;;;;;;7.87;4.73;;;;;;;-7.42;100.00;102995.59;10484601;28;20061;-81
2024/01/09 02:30:32;;;;;;;4.97;3.17;;;;;;;-7.63;100.00;102993.22;10487899;28;20040;-81
2024/01/09 02:35:32;;;;;;;10.70;3.80;;;;;;;-7.49;100.00;102981.00;10463927;28;20040;-81
2024/01/09 02:40:33;;;;;;;12.53;3.87;;;;;;;-7.50;100.00;102976.59;10486026;28;20075;-81
2024/01/09 02:45:33;;;;;;;8.23;3.40;;;;;;;-7.62;100.00;102975.66;10456997;28;20040;-81
2024/01/09 02:50:34;;;;;;;5.00;3.27;;;;;;;-7.72;100.00;102977.47;10481140;28;20120;-81
2024/01/09 02:55:34;;;;;;;3.60;2.57;;;;;;;-7.82;100.00;102976.06;10474493;28;20123;-81
2024/01/09 03:00:35;;;;;;;8.97;3.47;;;;;;;-7.70;100.00;102979.53;10479326;28;20143;-81
2024/01/09 03:05:35;;;;;;;5.77;4.00;;;;;;;-7.61;100.00;102967.34;10455638;28;20198;-81
2024/01/09 03:10:36;;;;;;;4.67;2.93;;;;;;;-7.61;100.00;102968.94;10486507;28;20495;-82
2024/01/09 03:15:36;;;;;;;6.63;3.47;;;;;;;-7.70;100.00;102966.84;10477538;28;20128;-81
2024/01/09 03:20:37;;;;;;;8.17;5.13;;;;;;;-7.76;100.00;102975.16;10480781;28;20128;-81
2024/01/09 03:25:37;;;;;;;4.73;2.23;;;;;;;-7.75;100.00;102971.91;10479233;28;20119;-81
2024/01/09 03:30:38;;;;;;;6.63;4.73;;;;;;;-7.77;100.00;102965.66;10499207;28;20116;-81
2024/01/09 03:35:38;;;;;;;4.60;3.33;;;;;;;-7.77;100.00;102975.84;10485597;28;20128;-82
2024/01/09 03:40:39;;;;;;;8.00;3.70;;;;;;;-7.84;100.00;102972.34;10490724;28;20128;-82
2024/01/09 03:45:39;;;;;;;6.35;4.22;;;;;;;-7.96;100.00;102970.44;10488086;28;20068;-81
2024/01/09 03:50:40;;;;;;;8.63;3.80;;;;;;;-7.93;100.00;102968.38;10483451;28;20539;-82
2024/01/09 03:55:41;;;;;;;4.53;3.37;;;;;;;-7.97;100.00;102974.59;10467447;28;20042;-80
2024/01/09 04:00:41;;;;;;;6.10;3.40;;;;;;;-7.85;100.00;102979.72;10468050;28;20399;-81
2024/01/09 04:05:42;;;;;;;4.77;2.97;;;;;;;-7.93;100.00;102973.47;10486078;27;20044;-81
2024/01/09 04:10:42;;;;;;;6.23;3.23;;;;;;;-7.91;100.00;102966.06;10483612;28;20590;-81
2024/01/09 04:15:43;;;;;;;6.93;3.87;;;;;;;-7.93;100.00;102967.44;10483713;28;20068;-82
2024/01/09 04:20:43;;;;;;;9.13;3.27;;;;;;;-7.94;100.00;102960.50;10473032;28;20124;-81
2024/01/09 04:25:44;;;;;;;8.17;4.10;;;;;;;-8.01;100.00;102966.25;10461482;28;20037;-81
2024/01/09 04:30:45;;;;;;;7.83;4.83;;;;;;;-8.23;100.00;102965.47;10456124;28;20068;-80
2024/01/09 04:35:45;;;;;;;6.45;3.08;;;;;;;-8.15;100.00;102964.09;10476094;28;20374;-81
2024/01/09 04:40:46;;;;;;;9.47;4.70;;;;;;;-8.08;100.00;102956.75;10487733;28;20116;-80
2024/01/09 04:45:46;;;;;;;5.70;3.10;;;;;;;-8.08;100.00;102960.91;10489554;28;20061;-80
2024/01/09 04:50:47;;;;;;;8.73;4.13;;;;;;;-8.13;100.00;102962.72;10484201;28;20119;-80
2024/01/09 04:55:47;;;;;;;4.67;3.30;;;;;;;-8.06;100.00;102957.91;10484141;28;20048;-81
2024/01/09 05:00:48;;;;;;;6.10;3.50;;;;;;;-8.07;100.00;102965.31;10479463;28;20468;-81
2024/01/09 05:05:49;;;;;;;8.17;2.57;;;;;;;-8.12;100.00;102962.97;10478875;28;20036;-80
2024/01/09 05:10:49;;;;;;;6.90;3.28;;;;;;;-8.24;100.00;102953.44;10454599;28;20131;-80
2024/01/09 05:15:50;;;;;;;6.30;5.07;;;;;;;-8.39;100.00;102962.13;10488570;27;20587;-80
2024/01/09 05:20:50;;;;;;;7.93;4.13;;;;;;;-8.34;100.00;102952.69;10481107;28;20045;-80
2024/01/09 05:25:51;;;;;;;10.13;4.30;;;;;;;-8.36;100.00;102961.69;10488323;28;20588;-80
2024/01/09 05:30:51;;;;;;;6.70;2.77;;;;;;;-8.35;100.00;102949.22;10475739;28;20041;-80
2024/01/09 05:35:52;;;;;;;8.43;3.73;;;;;;;-8.24;100.00;102955.03;10486750;28;20187;-80
2024/01/09 05:40:52;;;;;;;7.47;3.13;;;;;;;-8.23;100.00;102952.75;10482324;28;20060;-80
2024/01/09 05:45:53;;;;;;;9.17;3.60;;;;;;;-8.34;100.00;102947.63;10465659;28;20604;-80
2024/01/09 05:50:53;;;;;;;5.10;3.07;;;;;;;-8.39;100.00;102946.88;10524991;28;20492;-79
2024/01/09 05:55:54;;;;;;;6.90;2.83;;;;;;;-8.47;100.00;102944.75;10524517;27;20040;-80
2024/01/09 06:00:54;;;;;;;8.23;3.87;;;;;;;-8.49;100.00;102951.25;10513722;28;20123;-79
2024/01/09 06:05:56;;;;;;;21.73;6.57;;;;;;;-8.49;100.00;102947.09;10503097;28;20047;-78
2024/01/09 06:10:56;;;;;;;6.72;4.40;;;;;;;-8.57;100.00;102955.13;10483785;28;20539;-78
2024/01/09 06:15:57;;;;;;;5.97;4.10;;;;;;;-8.58;100.00;102956.72;10511470;27;20115;-81
2024/01/09 06:20:57;;;;;;;10.80;5.23;;;;;;;-8.53;100.00;102960.00;10446739;28;20446;-80
2024/01/09 06:25:58;;;;;;;9.30;5.33;;;;;;;-8.57;100.00;102958.59;10480621;28;20154;-82
2024/01/09 06:30:58;;;;;;;5.63;3.53;;;;;;;-8.73;100.00;102961.94;10485534;28;20217;-79
2024/01/09 06:36:00;;;;;;;10.35;7.40;;;;;;;-8.80;100.00;102962.59;10481360;28;20127;-78
2024/01/09 06:41:01;;;;;;;12.10;5.82;;;;;;;-8.60;100.00;102960.63;10462522;28;20484;-80
2024/01/09 06:46:01;;;;;;;6.33;3.90;;;;;;;-8.51;100.00;102967.84;10474978;28;20127;-80
2024/01/09 06:51:02;;;;;;;8.53;4.93;;;;;;;-8.67;100.00;102960.34;10507871;28;20468;-79
2024/01/09 06:56:03;;;;;;;6.77;3.80;;;;;;;-8.64;100.00;102959.94;10516807;28;20040;-80
2024/01/09 07:01:04;;;;;;;7.28;4.30;;;;;;;-8.67;100.00;102952.75;10485104;28;20490;-80
2024/01/09 07:06:04;;;;;;;12.00;4.03;;;;;;;-8.63;100.00;102956.72;10479317;28;20132;-80
2024/01/09 07:11:05;;;;;;;16.90;4.23;;;;;;;-8.69;100.00;102953.19;10480219;28;20114;-79
2024/01/09 07:16:06;;;;;;;10.67;6.73;;;;;;;-8.53;100.00;102964.16;10445659;28;20039;-79
2024/01/09 07:21:06;;;;;;;10.07;5.47;;;;;;;-8.48;100.00;102965.75;10525364;28;20044;-79
2024/01/09 07:26:07;;;;;;;8.47;4.83;;;;;;;-8.53;100.00;102975.25;10505309;28;20111;-79
2024/01/09 07:31:09;;;;;;;9.00;5.03;;;;;;;-8.52;100.00;102973.63;10522225;27;20056;-80
2024/01/09 07:36:09;;;;;;;11.65;5.40;;;;;;;-8.50;100.00;102985.88;10521272;28;20426;-78
2024/01/09 07:41:11;;;;;;;6.80;5.63;;;;;;;-8.48;100.00;102989.56;10521643;28;20040;-79
2024/01/09 07:46:12;;;;;;;9.95;7.28;;;;;;;-8.43;100.00;102988.69;10488836;28;20048;-79
2024/01/09 07:51:12;;;;;;;9.87;5.70;;;;;;;-8.44;100.00;102991.91;10448781;28;20118;-78
2024/01/09 07:56:19;;;;;;;7.87;4.57;;;;;;;-8.47;100.00;102996.50;10508072;27;20043;-78
2024/01/09 08:01:20;;;;;;;10.55;5.75;;;;;;;-8.45;100.00;102991.63;10495149;28;20952;-78
2024/01/09 08:06:20;;;;;;;9.80;6.13;;;;;;;-8.34;100.00;102995.88;10529349;27;20096;-79
2024/01/09 08:11:21;;;;;;;9.67;6.13;;;;;;;-8.30;100.00;103003.31;10529966;27;20122;-79
2024/01/09 08:16:21;;;;;;;13.90;7.10;;;;;;;-8.21;100.00;102999.66;10491598;28;20127;-78
2024/01/09 08:21:22;;;;;;;8.17;3.87;;;;;;;-8.23;100.00;103001.03;10487736;28;20137;-79
2024/01/09 08:26:22;;;;;;;9.93;5.80;;;;;;;-8.23;100.00;103008.66;10486898;28;20833;-79
2024/01/09 08:31:23;;;;;;;8.53;5.97;;;;;;;-8.17;100.00;102994.38;10486883;28;20062;-77
2024/01/09 08:36:23;;;;;;;7.20;6.03;;;;;;;-8.02;100.00;103003.44;10487415;28;20438;-77
2024/01/09 08:41:24;;;;;;;10.53;5.67;;;;;;;-8.00;100.00;103009.69;10485087;28;20043;-78
2024/01/09 08:46:24;;;;;;;8.00;3.67;;;;;;;-7.98;100.00;103003.25;10487060;28;20127;-78
2024/01/09 08:51:25;;;;;;;9.97;6.07;;;;;;;-7.79;100.00;103007.72;10510649;28;20040;-76
2024/01/09 08:56:25;;;;;;;9.63;4.78;;;;;;;-7.65;100.00;103025.09;10515786;28;20510;-78
2024/01/09 09:01:26;;;;;;;13.87;5.30;;;;;;;-7.61;100.00;103027.44;10541283;27;20110;-76
2024/01/09 09:06:26;;;;;;;6.93;5.73;;;;;;;-7.48;100.00;103022.66;10533015;27;20051;-76
2024/01/09 09:11:27;;;;;;;7.57;4.90;;;;;;;-7.43;100.00;103009.03;10526754;27;20096;-77
2024/01/09 09:16:29;;;;;;;10.43;6.20;;;;;;;-7.38;100.00;103016.66;10525529;27;20123;-77
2024/01/09 09:21:29;;;;;;;10.68;4.97;;;;;;;-7.19;100.00;103029.66;10526553;27;20044;-77
2024/01/09 09:26:32;;;;;;;7.80;6.00;;;;;;;-7.06;100.00;103029.94;10525803;27;20483;-77
2024/01/09 09:31:33;;;;;;;7.45;5.82;;;;;;;-6.97;100.00;103043.13;10473876;28;20040;-76
2024/01/09 09:36:33;;;;;;;8.40;7.23;;;;;;;-6.73;100.00;103037.34;10516326;28;20048;-77
2024/01/09 09:41:35;;;;;;;5.80;3.90;;;;;;;-6.55;100.00;103045.22;10504670;28;20479;-77
2024/01/09 09:46:36;;;;;;;8.23;5.60;;;;;;;-6.44;100.00;103039.22;10489553;28;20042;-77
2024/01/09 09:51:36;;;;;;;11.80;6.73;;;;;;;-6.17;100.00;103036.41;10509136;28;20040;-78
2024/01/09 09:56:37;;;;;;;11.43;4.93;;;;;;;-6.05;100.00;103035.69;10486590;28;20128;-76
2024/01/09 10:01:38;;;;;;;7.80;6.13;;;;;;;-5.91;100.00;103037.69;10509787;28;20551;-78
2024/01/09 10:06:38;;;;;;;8.85;5.18;;;;;;;-5.73;100.00;103053.84;10521290;28;20050;-79
2024/01/09 10:11:39;;;;;;;9.87;5.60;;;;;;;-5.60;100.00;103054.06;10504750;28;20189;-78
2024/01/09 10:16:53;;;;;;;11.53;4.90;;;;;;;-5.44;100.00;103053.75;10505978;28;20060;-80
2024/01/09 10:21:54;;;;;;;11.60;5.85;;;;;;;-5.21;100.00;103046.91;10521083;28;20040;-78
2024/01/09 10:26:54;;;;;;;8.03;5.23;;;;;;;-4.88;100.00;103034.63;10485182;28;20122;-78
2024/01/09 10:31:55;;;;;;;8.27;6.13;;;;;;;-4.47;100.00;103026.84;10496587;28;20119;-80
2024/01/09 10:37:06;;;;;;;11.43;6.10;;;;;;;-4.14;100.00;103032.34;10524139;28;20046;-79
2024/01/09 10:42:09;;;;;;;13.35;6.25;;;;;;;-3.57;100.00;103026.56;10525476;27;20048;-79
2024/01/09 10:47:10;;;;;;;11.75;5.60;;;;;;;-2.21;100.00;103025.19;10523455;27;20064;-78
2024/01/09 10:52:14;;;;;;;8.40;5.33;;;;;;;-1.82;100.00;103032.84;10522935;27;20544;-80
2024/01/09 10:57:15;;;;;;;10.50;6.22;;;;;;;-1.56;100.00;103023.44;10556584;27;20043;-79
2024/01/09 11:02:17;;;;;;;10.07;5.90;;;;;;;1.01;100.00;103010.81;10506661;27;20044;-79
2024/01/09 11:07:17;;;;;;;6.78;6.07;;;;;;;1.87;100.00;103016.59;10523674;27;20039;-79
2024/01/09 11:12:24;;;;;;;17.40;5.43;;;;;;;0.24;100.00;102994.63;10523590;27;20032;-79
2024/01/09 11:17:25;;;;;;;7.43;5.22;;;;;;;-1.14;100.00;103005.72;10439386;28;20489;-77
2024/01/09 11:22:26;;;;;;;12.97;5.57;;;;;;;-2.23;100.00;102999.34;10456374;28;20124;-79
2024/01/09 11:27:39;;;;;;;8.23;4.07;;;;;;;-2.19;100.00;102979.22;10446193;28;20099;-79
2024/01/09 11:32:39;;;;;;;10.93;4.78;;;;;;;-1.78;100.00;102984.66;10499972;27;20036;-79
2024/01/09 11:37:44;;;;;;;9.83;5.10;;;;;;;-1.90;100.00;102969.31;10532303;28;20040;-79
2024/01/09 11:42:48;;;;;;;9.90;5.97;;;;;;;-1.63;100.00;102969.41;10530431;28;20043;-78
2024/01/09 11:47:49;;;;;;;8.05;3.53;;;;;;;-1.64;100.00;102962.44;10529083;27;20043;-78
2024/01/09 11:52:50;;;;;;;7.27;4.87;;;;;;;-2.40;100.00;102968.84;10528540;27;20028;-79
2024/01/09 11:57:50;;;;;;;6.77;3.50;;;;;;;-2.55;100.00;102947.22;10525153;28;20123;-79
2024/01/09 12:02:51;;;;;;;11.37;4.73;;;;;;;-2.10;100.00;102955.69;10518820;28;20036;-79
2024/01/09 12:07:51;;;;;;;9.43;4.27;;;;;;;-2.60;100.00;102944.75;10489076;28;20458;-79
2024/01/09 12:12:51;;;;;;;11.33;5.63;;;;;;;-2.54;100.00;102946.50;10506303;28;20036;-79
2024/01/09 12:17:58;;;;;;;9.07;3.97;;;;;;;-1.91;100.00;102932.44;10544226;28;20123;-80
2024/01/09 12:22:59;;;;;;;7.22;3.75;;;;;;;-1.07;100.00;102920.00;10503179;28;20600;-79
2024/01/09 12:27:59;;;;;;;12.60;7.07;;;;;;;-0.91;100.00;102928.03;10521888;28;20143;-79
2024/01/09 12:33:00;;;;;;;10.03;4.77;;;;;;;-1.47;100.00;102910.72;10485649;28;20488;-80
2024/01/09 12:38:02;;;;;;;;;;;;;;;-0.81;100.00;102899.25;10484866;28;20029;-77
2024/01/09 12:43:09;;;;;;;13.10;5.38;;;;;;;-0.87;100.00;102891.72;10486390;28;19924;-77
2024/01/09 12:48:10;;;;;;;10.00;5.45;;;;;;;-1.16;100.00;102893.13;10486177;28;20094;-80
2024/01/09 12:53:11;;;;;;;7.10;3.17;;;;;;;-0.93;100.00;102891.84;10484792;28;20036;-79
2024/01/09 12:58:11;;;;;;;8.70;5.27;;;;;;;-1.35;100.00;102886.59;10484428;28;20170;-79
2024/01/09 13:03:12;;;;;;;9.13;4.77;;;;;;;-1.34;100.00;102866.94;10528325;27;20127;-79
2024/01/09 13:08:12;;;;;;;8.17;4.13;;;;;;;-0.64;100.00;102873.09;10526574;27;20130;-80
2024/01/09 13:13:13;;;;;;;9.87;4.67;;;;;;;-0.67;100.00;102858.19;10527648;27;20464;-79
2024/01/09 13:18:13;;;;;;;8.13;3.73;;;;;;;-1.45;100.00;102855.31;10485283;28;20043;-78
2024/01/09 13:23:14;;;;;;;8.20;5.07;;;;;;;-1.71;100.00;102854.50;10526167;27;20062;-79
2024/01/09 13:28:14;;;;;;;5.77;3.70;;;;;;;-1.96;100.00;102849.72;10526853;27;20046;-79
2024/01/09 13:33:15;;;;;;;6.23;3.17;;;;;;;-2.15;100.00;102848.94;10526180;27;20127;-79
2024/01/09 13:38:16;;;;;;;5.37;3.67;;;;;;;-2.45;100.00;102861.25;10527286;27;20128;-79
2024/01/09 13:43:16;;;;;;;7.27;4.13;;;;;;;-2.42;100.00;102857.44;10526353;27;20062;-81
2024/01/09 13:48:17;;;;;;;6.93;4.10;;;;;;;-2.28;100.00;102856.69;10526063;27;20368;-79
2024/01/09 13:53:18;;;;;;;4.97;3.27;;;;;;;-0.97;100.00;102848.47;10525414;27;20810;-79
2024/01/09 13:58:19;;;;;;;6.20;4.05;;;;;;;-0.91;100.00;102838.06;10527301;27;20040;-80
2024/01/09 14:03:21;;;;;;;6.27;3.73;;;;;;;-1.42;100.00;102831.66;10525817;27;20479;-79
2024/01/09 14:08:22;;;;;;;10.00;3.22;;;;;;;-1.50;100.00;102833.25;10524074;28;20108;-79
2024/01/09 14:13:22;;;;;;;4.70;2.53;;;;;;;-1.82;100.00;102830.94;10495228;27;20097;-79
2024/01/09 14:18:23;;;;;;;6.57;3.47;;;;;;;-2.04;100.00;102836.59;10478386;28;20127;-79
2024/01/09 14:23:23;;;;;;;9.30;2.83;;;;;;;-2.19;100.00;102831.31;10455952;28;20070;-81
2024/01/09 14:28:24;;;;;;;5.27;3.63;;;;;;;-2.61;100.00;102848.97;10475719;28;20056;-78
2024/01/09 14:33:24;;;;;;;14.50;6.00;;;;;;;-2.93;100.00;102842.13;10463170;28;20048;-80
2024/01/09 14:38:25;;;;;;;8.07;3.17;;;;;;;-3.10;100.00;102851.97;10477336;28;20475;-79
2024/01/09 14:43:25;;;;;;;5.87;3.77;;;;;;;-3.19;100.00;102844.66;10468910;28;20060;-80
2024/01/09 14:48:32;;;;;;;5.22;4.00;;;;;;;-3.21;100.00;102853.78;10506014;27;20184;-78
2024/01/09 14:53:32;;;;;;;6.90;2.67;;;;;;;-3.40;100.00;102851.28;10499251;27;20051;-79
2024/01/09 14:58:33;;;;;;;8.77;3.13;;;;;;;-3.57;100.00;102841.34;10530235;27;20139;-81
2024/01/09 15:03:36;;;;;;;7.28;3.47;;;;;;;-3.82;100.00;102845.66;10519754;27;20070;-78
2024/01/09 15:08:40;;;;;;;7.75;3.63;;;;;;;-3.84;100.00;102831.75;10524469;27;20035;-79
2024/01/09 15:13:41;;;;;;;5.00;2.47;;;;;;;-3.83;100.00;102839.63;10463161;28;20059;-78
2024/01/09 15:18:42;;;;;;;7.82;3.72;;;;;;;-3.95;100.00;102837.94;10479329;28;20047;-78
2024/01/09 15:23:43;;;;;;;4.40;2.77;;;;;;;-3.98;100.00;102837.50;10509219;27;20530;-79
2024/01/09 15:28:44;;;;;;;8.73;4.03;;;;;;;-4.26;100.00;102838.81;10484187;28;20142;-79
2024/01/09 15:33:45;;;;;;;4.67;3.00;;;;;;;-4.44;100.00;102847.44;10486394;28;20036;-78
2024/01/09 15:38:45;;;;;;;8.20;3.87;;;;;;;-4.40;100.00;102846.19;10497420;28;20119;-79
2024/01/09 15:43:46;;;;;;;5.03;3.30;;;;;;;-4.40;100.00;102842.03;10459517;28;20384;-81
2024/01/09 15:48:47;;;;;;;7.85;3.53;;;;;;;-4.48;100.00;102835.84;10489286;27;20429;-80
2024/01/09 15:53:50;;;;;;;10.77;4.33;;;;;;;-4.61;100.00;102837.38;10504056;27;20065;-81
2024/01/09 15:58:51;;;;;;;7.88;4.60;;;;;;;-4.73;100.00;102842.63;10525299;27;20400;-81
2024/01/09 16:03:53;;;;;;;9.83;4.17;;;;;;;-4.81;100.00;102839.72;10478765;28;20060;-80
2024/01/09 16:08:53;;;;;;;7.80;4.10;;;;;;;-5.06;100.00;102849.91;10481913;28;20047;-82
2024/01/09 16:13:54;;;;;;;7.00;3.20;;;;;;;-5.08;100.00;102848.78;10477667;28;21254;-80
2024/01/09 16:18:56;;;;;;;8.07;3.60;;;;;;;-5.09;100.00;102853.69;10506543;28;20131;-80
2024/01/09 16:23:56;;;;;;;5.88;2.75;;;;;;;-5.20;100.00;102854.69;10480778;28;20036;-79
2024/01/09 16:28:57;;;;;;;3.07;2.53;;;;;;;-5.50;100.00;102850.53;10471053;28;20051;-79
2024/01/09 16:33:57;;;;;;;8.00;3.90;;;;;;;-5.88;100.00;102860.28;10473989;28;20424;-79
2024/01/09 16:38:58;;;;;;;8.00;4.37;;;;;;;-5.93;100.00;102857.09;10479816;28;20048;-77
2024/01/09 16:43:59;;;;;;;6.57;3.87;;;;;;;-5.98;100.00;102853.84;10466209;28;20048;-78
2024/01/09 16:48:59;;;;;;;3.83;2.63;;;;;;;-5.61;100.00;102856.63;10459074;28;20053;-78
2024/01/09 16:54:00;;;;;;;6.30;3.27;;;;;;;-5.57;100.00;102850.38;10473651;28;20071;-77
2024/01/09 16:59:00;;;;;;;5.73;4.10;;;;;;;-5.65;100.00;102844.13;10531636;27;20451;-78
2024/01/09 17:04:01;;;;;;;4.57;3.10;;;;;;;-5.48;100.00;102840.53;10490376;28;20126;-78
2024/01/09 17:09:02;;;;;;;6.60;3.33;;;;;;;-5.43;100.00;102844.69;10480699;28;20064;-77
2024/01/09 17:14:02;;;;;;;9.17;4.13;;;;;;;-5.26;100.00;102841.06;10477108;28;20442;-78
2024/01/09 17:19:03;;;;;;;6.90;3.40;;;;;;;-5.47;100.00;102838.22;10470502;28;20143;-77
2024/01/09 17:24:04;;;;;;;6.07;4.60;;;;;;;-5.44;100.00;102835.16;10466209;28;20032;-77
2024/01/09 17:29:04;;;;;;;8.23;4.53;;;;;;;-5.54;100.00;102834.56;10491059;28;20123;-79
2024/01/09 17:34:05;;;;;;;8.63;3.67;;;;;;;-5.74;100.00;102835.16;10470527;28;20391;-78
2024/01/09 17:39:05;;;;;;;5.93;4.90;;;;;;;-5.91;100.00;102835.28;10493765;28;20454;-77
2024/01/09 17:44:06;;;;;;;15.30;3.90;;;;;;;-5.85;100.00;102841.28;10519001;28;20495;-78
2024/01/09 17:49:07;;;;;;;5.53;3.13;;;;;;;-5.69;100.00;102840.94;10505012;28;20039;-78
2024/01/09 17:54:08;;;;;;;8.68;6.22;;;;;;;-5.84;100.00;102840.56;10523965;28;20766;-78
2024/01/09 17:59:09;;;;;;;5.53;3.70;;;;;;;-5.87;100.00;102837.59;10523972;27;20123;-76
2024/01/09 18:04:16;;;;;;;7.83;4.27;;;;;;;-5.74;100.00;102845.38;10524023;28;20047;-78
2024/01/09 18:09:21;;;;;;;6.35;3.53;;;;;;;-5.76;100.00;102844.22;10502163;28;20060;-78
2024/01/09 18:14:22;;;;;;;9.00;4.10;;;;;;;-5.63;100.00;102854.59;10523165;28;20055;-77
2024/01/09 18:19:22;;;;;;;11.23;6.28;;;;;;;-5.73;100.00;102857.41;10522101;28;20047;-77
2024/01/09 18:24:23;;;;;;;8.10;5.07;;;;;;;-5.78;100.00;102859.31;10503128;27;20484;-78
2024/01/09 18:29:23;;;;;;;7.40;4.50;;;;;;;-5.94;100.00;102865.44;10493383;28;20044;-78
2024/01/09 18:34:24;;;;;;;9.13;3.27;;;;;;;-6.04;100.00;102855.53;10516478;27;20036;-79
2024/01/09 18:39:25;;;;;;;5.07;3.27;;;;;;;-6.17;100.00;102865.59;10511221;27;20126;-79
2024/01/09 18:44:28;;;;;;;5.32;3.88;;;;;;;-6.09;100.00;102862.53;10504501;27;20054;-79
2024/01/09 18:49:28;;;;;;;7.35;3.58;;;;;;;-5.92;100.00;102859.84;10510663;27;20038;-79
2024/01/09 18:54:29;;;;;;;7.43;4.43;;;;;;;-5.64;100.00;102860.38;10522780;27;20058;-79
2024/01/09 18:59:29;;;;;;;6.50;2.70;;;;;;;-5.65;100.00;102854.34;10516001;27;20072;-78
2024/01/09 19:04:31;;;;;;;12.43;3.97;;;;;;;-5.94;100.00;102862.91;10523397;27;20051;-79
2024/01/09 19:09:32;;;;;;;7.43;3.45;;;;;;;-6.07;100.00;102850.94;10515318;27;20040;-78
2024/01/09 19:14:32;;;;;;;7.10;4.57;;;;;;;-5.80;100.00;102842.88;10496567;27;20040;-79
2024/01/09 19:19:33;;;;;;;9.83;5.40;;;;;;;-5.77;100.00;102857.69;10476625;28;20082;-78
2024/01/09 19:24:37;;;;;;;5.80;4.27;;;;;;;-5.86;100.00;102849.63;10469881;27;20046;-79
2024/01/09 19:29:38;;;;;;;8.27;3.78;;;;;;;-5.87;100.00;102859.59;10523124;28;20040;-78
2024/01/09 19:34:39;;;;;;;6.07;3.10;;;;;;;-6.05;100.00;102856.25;10521904;28;20515;-77
2024/01/09 19:39:43;;;;;;;6.93;4.00;;;;;;;-6.06;100.00;102852.78;10508430;28;20480;-77
2024/01/09 19:44:45;;;;;;;8.82;5.22;;;;;;;-6.01;100.00;102838.16;10460234;28;20127;-77
2024/01/09 19:49:46;;;;;;;8.23;4.70;;;;;;;-6.13;100.00;102836.34;10490445;28;20052;-76
2024/01/09 19:54:46;;;;;;;8.93;3.97;;;;;;;-6.31;100.00;102835.53;10488209;28;20541;-76
2024/01/09 19:59:47;;;;;;;6.57;3.83;;;;;;;-6.31;100.00;102840.63;10509778;28;20143;-76
2024/01/09 20:04:47;;;;;;;5.33;4.40;;;;;;;-6.56;100.00;102839.56;10482460;28;20123;-77
2024/01/09 20:09:49;;;;;;;5.43;4.00;;;;;;;-6.58;100.00;102840.03;10475509;28;20779;-77
2024/01/09 20:14:49;;;;;;;;;;;;;;;-6.68;100.00;102837.75;10509694;28;20102;-76
2024/01/09 20:19:50;;;;;;;8.57;5.07;;;;;;;-6.71;100.00;102828.03;10502345;28;20276;-76
2024/01/09 20:24:50;;;;;;;11.30;3.57;;;;;;;-6.82;100.00;102831.53;10481459;28;20040;-77
2024/01/09 20:29:51;;;;;;;11.10;5.53;;;;;;;-6.74;100.00;102812.31;10488592;28;20036;-76
2024/01/09 20:34:53;;;;;;;9.07;4.70;;;;;;;-6.60;100.00;102823.59;10482900;28;20048;-77
2024/01/09 20:39:54;;;;;;;7.43;4.22;;;;;;;-6.64;100.00;102828.25;10487668;28;20464;-76
2024/01/09 20:44:54;;;;;;;5.90;3.80;;;;;;;-6.71;100.00;102825.50;10486542;28;20071;-76
2024/01/09 20:49:55;;;;;;;6.03;3.57;;;;;;;-6.80;100.00;102839.41;10500747;28;20055;-76
2024/01/09 20:54:55;;;;;;;7.23;6.37;;;;;;;-6.81;100.00;102833.38;10501949;28;20036;-76
2024/01/09 20:59:57;;;;;;;5.87;4.10;;;;;;;-6.87;100.00;102834.09;10515794;27;20119;-76
2024/01/09 21:05:00;;;;;;;;;;;;;;;-6.56;100.00;102839.56;10486796;28;20072;-76
2024/01/09 21:10:02;;;;;;;9.35;5.50;;;;;;;-6.56;100.00;102837.00;10487111;28;19974;-76
2024/01/09 21:15:04;;;;;;;8.82;5.78;;;;;;;-6.50;100.00;102832.81;10485491;28;20491;-76
2024/01/09 21:20:05;;;;;;;15.52;4.50;;;;;;;-6.59;100.00;102833.09;10527775;27;20039;-76
2024/01/09 21:25:06;;;;;;;11.73;5.75;;;;;;;-6.65;100.00;102831.50;10483868;28;20041;-76
2024/01/09 21:30:08;;;;;;;8.48;5.88;;;;;;;-6.81;100.00;102828.28;10527903;28;20081;-76
2024/01/09 21:35:08;;;;;;;9.23;5.18;;;;;;;-6.84;100.00;102832.00;10549956;27;20108;-76
2024/01/09 21:40:14;;;;;;;17.57;8.67;;;;;;;-6.90;100.00;102823.47;10540020;27;20184;-76
2024/01/09 21:45:14;;;;;;;10.57;6.32;;;;;;;-7.01;100.00;102834.56;10490185;28;20040;-76
2024/01/09 21:50:18;;;;;;;8.40;4.20;;;;;;;-7.16;100.00;102834.13;10505576;28;20037;-76
2024/01/09 21:55:18;;;;;;;8.20;5.00;;;;;;;-7.38;100.00;102820.72;10485723;28;20032;-76
2024/01/09 22:00:20;;;;;;;9.93;6.13;;;;;;;-7.41;100.00;102821.91;10482660;28;20120;-77
2024/01/09 22:05:20;;;;;;;8.80;4.93;;;;;;;-7.49;100.00;102817.28;10485570;28;20047;-77
2024/01/09 22:10:21;;;;;;;6.87;5.30;;;;;;;-7.54;100.00;102822.59;10482568;28;20094;-77
2024/01/09 22:15:22;;;;;;;9.95;6.47;;;;;;;-7.57;100.00;102831.38;10466311;28;20036;-76
2024/01/09 22:20:22;;;;;;;10.20;6.00;;;;;;;-7.41;100.00;102821.91;10482183;28;20178;-77
2024/01/09 22:25:23;;;;;;;9.93;4.57;;;;;;;-7.47;100.00;102826.06;10483288;28;20338;-76
2024/01/09 22:30:23;;;;;;;15.97;8.47;;;;;;;-7.43;100.00;102821.66;10489602;28;20139;-76
2024/01/09 22:35:24;;;;;;;11.23;5.10;;;;;;;-7.41;100.00;102822.81;10526451;28;20131;-79
2024/01/09 22:40:25;;;;;;;9.47;6.20;;;;;;;-7.28;100.00;102809.38;10518275;28;20127;-75
2024/01/09 22:45:27;;;;;;;11.30;6.00;;;;;;;-7.28;100.00;102817.03;10526313;28;20126;-76